createdAt,value
2023-02-25T00:01:06.085Z,17.08
2023-02-25T00:03:32.883Z,18.02
2023-02-25T00:06:00.902Z,14.32
2023-02-25T00:08:27.490Z,11.70
2023-02-25T00:10:59.044Z,11.68
2023-02-25T00:13:26.173Z,12.70
2023-02-25T00:15:53.517Z,11.82
2023-02-25T00:18:20.481Z,11.27
2023-02-25T00:20:47.483Z,10.60
2023-02-25T00:23:14.386Z,7.20
2023-02-25T00:25:40.977Z,9.07
2023-02-25T00:28:07.685Z,7.75
2023-02-25T00:30:35.105Z,6.82
2023-02-25T00:33:02.066Z,8.48
2023-02-25T00:35:28.752Z,7.20
2023-02-25T00:37:59.129Z,9.35
2023-02-25T00:40:30.703Z,8.25
2023-02-25T00:42:57.288Z,7.25
2023-02-25T00:45:23.881Z,6.95
2023-02-25T00:47:50.580Z,9.02
2023-02-25T00:50:17.270Z,10.15
2023-02-25T00:52:43.847Z,10.30
2023-02-25T00:55:10.666Z,7.20
2023-02-25T00:57:37.280Z,10.55
2023-02-25T01:00:10.396Z,19.40
2023-02-25T01:02:37.314Z,9.18
2023-02-25T01:05:04.124Z,8.63
2023-02-25T01:07:30.955Z,7.45
2023-02-25T01:09:57.633Z,8.43
2023-02-25T01:12:24.266Z,9.35
2023-02-25T01:14:50.872Z,7.75
2023-02-25T01:17:18.073Z,5.95
2023-02-25T01:19:44.716Z,8.27
2023-02-25T01:22:11.360Z,7.32
2023-02-25T01:24:37.982Z,6.40
2023-02-25T01:27:04.783Z,9.10
2023-02-25T01:29:34.116Z,7.03
2023-02-25T01:32:01.892Z,12.45
2023-02-25T01:34:28.965Z,10.68
2023-02-25T01:36:55.817Z,7.57
2023-02-25T01:39:22.944Z,6.43
2023-02-25T01:41:51.185Z,5.78
2023-02-25T01:47:00.801Z,9.48
2023-02-25T01:49:32.671Z,6.90
2023-02-25T01:52:20.336Z,6.78
2023-02-25T01:54:48.680Z,7.72
2023-02-25T01:57:15.670Z,6.38
2023-02-25T01:59:42.359Z,6.22
2023-02-25T02:02:09.952Z,6.53
2023-02-25T02:04:36.663Z,6.43
2023-02-25T02:07:04.118Z,6.47
2023-02-25T02:09:30.953Z,7.72
2023-02-25T02:11:58.455Z,9.18
2023-02-25T02:14:28.410Z,7.65
2023-02-25T02:25:57.285Z,12.68
2023-02-25T02:28:52.347Z,11.70
2023-02-25T02:31:24.484Z,16.38
2023-02-25T02:34:10.442Z,12.52
2023-02-25T02:36:45.927Z,4.60
2023-02-25T02:39:36.052Z,6.00
2023-02-25T02:42:42.532Z,4.40
2023-02-25T02:47:57.988Z,4.30
2023-02-25T02:50:31.541Z,5.57
2023-02-25T02:52:59.744Z,4.15
2023-02-25T02:55:33.266Z,6.70
2023-02-25T02:58:22.220Z,5.10
2023-02-25T03:00:55.316Z,5.20
2023-02-25T03:03:35.935Z,4.88
2023-02-25T03:06:04.846Z,5.75
2023-02-25T03:08:32.746Z,4.50
2023-02-25T03:10:59.333Z,4.63
2023-02-25T03:13:26.026Z,7.22
2023-02-25T03:15:52.654Z,6.15
2023-02-25T03:18:27.238Z,9.32
2023-02-25T03:20:54.153Z,11.60
2023-02-25T03:23:22.633Z,12.80
2023-02-25T03:25:53.684Z,10.23
2023-02-25T03:31:24.519Z,14.73
2023-02-25T03:34:01.813Z,2.60
2023-02-25T03:36:32.586Z,4.00
2023-02-25T03:39:05.057Z,2.83
2023-02-25T03:44:01.868Z,3.00
2023-02-25T03:46:28.548Z,2.05
2023-02-25T03:48:55.219Z,4.32
2023-02-25T03:51:24.930Z,2.83
2023-02-25T03:53:51.956Z,3.25
2023-02-25T03:56:18.655Z,3.05
2023-02-25T03:58:45.269Z,2.10
2023-02-25T04:01:17.102Z,3.83
2023-02-25T04:03:43.980Z,2.97
2023-02-25T04:06:11.924Z,2.75
2023-02-25T04:08:38.598Z,2.83
2023-02-25T04:11:05.227Z,3.45
2023-02-25T04:13:31.892Z,2.95
2023-02-25T04:15:58.748Z,4.93
2023-02-25T04:18:26.587Z,3.45
2023-02-25T04:20:53.489Z,3.83
2023-02-25T04:23:20.135Z,3.67
2023-02-25T04:25:46.748Z,4.50
2023-02-25T04:28:13.369Z,5.30
2023-02-25T04:30:40.050Z,4.15
2023-02-25T04:33:06.983Z,5.82
2023-02-25T04:35:33.573Z,4.95
2023-02-25T04:38:00.177Z,5.28
2023-02-25T04:40:26.915Z,5.25
2023-02-25T04:42:53.583Z,5.38
2023-02-25T04:45:26.936Z,6.70
2023-02-25T04:47:54.260Z,5.78
2023-02-25T04:50:21.004Z,4.40
2023-02-25T04:52:47.813Z,5.47
2023-02-25T04:55:14.466Z,6.50
2023-02-25T04:57:42.345Z,6.30
2023-02-25T05:00:12.194Z,5.95
2023-02-25T05:02:38.780Z,5.18
2023-02-25T05:05:05.673Z,6.82
2023-02-25T05:07:32.279Z,11.10
2023-02-25T05:09:58.935Z,6.88
2023-02-25T05:12:25.593Z,9.73
2023-02-25T05:14:52.193Z,7.43
2023-02-25T05:17:19.099Z,10.10
2023-02-25T05:19:45.669Z,8.43
2023-02-25T05:22:12.467Z,10.15
2023-02-25T05:24:39.115Z,9.02
2023-02-25T05:27:06.095Z,8.95
2023-02-25T05:29:32.932Z,9.95
2023-02-25T05:31:59.784Z,9.88
2023-02-25T05:34:26.529Z,10.88
2023-02-25T05:36:53.211Z,13.40
2023-02-25T05:39:19.846Z,8.15
2023-02-25T05:41:46.652Z,10.73
2023-02-25T05:44:13.272Z,11.80
2023-02-25T05:46:39.916Z,11.13
2023-02-25T05:49:06.577Z,10.57
2023-02-25T05:51:33.287Z,12.23
2023-02-25T05:54:00.323Z,12.77
2023-02-25T05:56:28.360Z,9.45
2023-02-25T05:58:56.868Z,10.75
2023-02-25T06:01:27.549Z,12.60
2023-02-25T06:03:58.218Z,10.55
2023-02-25T06:06:25.940Z,12.57
2023-02-25T06:08:53.005Z,10.93
2023-02-25T06:11:23.320Z,11.20
2023-02-25T06:13:50.984Z,10.70
2023-02-25T06:16:17.911Z,15.02
2023-02-25T06:18:46.287Z,14.25
2023-02-25T06:21:14.150Z,10.23
2023-02-25T06:23:41.405Z,10.10
2023-02-25T06:26:08.740Z,14.15
2023-02-25T06:28:36.265Z,12.63
2023-02-25T06:31:03.252Z,10.38
2023-02-25T06:33:31.482Z,12.55
2023-02-25T06:35:58.915Z,10.98
2023-02-25T06:38:25.604Z,10.07
2023-02-25T06:40:52.312Z,11.23
2023-02-25T06:43:18.963Z,16.00
2023-02-25T06:45:45.642Z,13.85
2023-02-25T06:48:12.354Z,10.25
2023-02-25T06:50:39.448Z,11.13
2023-02-25T06:53:06.364Z,11.00
2023-02-25T06:55:33.278Z,14.82
2023-02-25T06:57:59.930Z,12.02
2023-02-25T07:00:26.625Z,13.48
2023-02-25T07:02:53.364Z,12.38
2023-02-25T07:05:20.021Z,13.15
2023-02-25T07:07:46.638Z,10.20
2023-02-25T07:10:13.358Z,9.65
2023-02-25T07:12:40.082Z,14.10
2023-02-25T07:15:07.492Z,15.20
2023-02-25T07:17:34.072Z,11.90
2023-02-25T07:20:00.714Z,13.63
2023-02-25T07:22:27.335Z,12.82
2023-02-25T07:24:53.925Z,11.98
2023-02-25T07:27:20.588Z,13.35
2023-02-25T07:29:47.236Z,12.50
2023-02-25T07:32:14.056Z,12.20
2023-02-25T07:34:40.747Z,10.07
2023-02-25T07:37:07.422Z,12.00
2023-02-25T07:39:34.043Z,11.90
2023-02-25T07:42:00.744Z,13.23
2023-02-25T07:44:27.361Z,9.00
2023-02-25T07:46:53.999Z,9.48
2023-02-25T07:49:20.605Z,8.45
2023-02-25T07:51:47.295Z,12.95
2023-02-25T07:54:15.502Z,9.85
2023-02-25T07:56:42.104Z,11.65
2023-02-25T07:59:09.903Z,11.63
2023-02-25T08:01:39.514Z,12.57
2023-02-25T08:04:06.352Z,9.48
2023-02-25T08:06:37.663Z,11.15
2023-02-25T08:09:05.936Z,14.32
2023-02-25T08:11:32.636Z,11.38
2023-02-25T08:14:00.327Z,13.23
2023-02-25T08:16:27.085Z,9.43
2023-02-25T08:18:54.083Z,9.13
2023-02-25T08:21:21.815Z,17.10
2023-02-25T08:23:49.114Z,10.95
2023-02-25T08:26:19.013Z,6.95
2023-02-25T08:28:45.864Z,8.90
2023-02-25T08:31:12.872Z,11.48
2023-02-25T08:33:40.629Z,8.45
2023-02-25T08:36:12.220Z,11.52
2023-02-25T08:38:38.909Z,5.57
2023-02-25T08:41:06.107Z,7.85
2023-02-25T08:43:32.990Z,8.52
2023-02-25T08:46:01.230Z,5.85
2023-02-25T08:48:28.087Z,6.68
2023-02-25T08:50:55.531Z,12.43
2023-02-25T08:53:22.837Z,8.57
2023-02-25T08:55:50.970Z,7.43
2023-02-25T08:58:17.610Z,9.90
2023-02-25T09:00:44.253Z,11.07
2023-02-25T09:03:10.887Z,7.70
2023-02-25T09:05:37.999Z,8.45
2023-02-25T09:08:04.925Z,12.52
2023-02-25T09:10:48.368Z,5.95
2023-02-25T09:13:17.184Z,7.65
2023-02-25T09:15:43.817Z,5.90
2023-02-25T09:18:11.638Z,4.60
2023-02-25T09:20:38.510Z,5.55
2023-02-25T09:23:05.162Z,4.47
2023-02-25T09:25:31.893Z,9.88
2023-02-25T09:27:58.571Z,4.80
2023-02-25T09:30:25.249Z,5.75
2023-02-25T09:32:52.021Z,5.03
2023-02-25T09:35:18.859Z,8.38
2023-02-25T09:37:45.519Z,6.05
2023-02-25T09:40:17.071Z,8.15
2023-02-25T09:42:50.130Z,5.10
2023-02-25T09:45:17.933Z,4.07
2023-02-25T09:47:56.105Z,4.38
2023-02-25T09:50:25.616Z,9.48
2023-02-25T09:53:04.169Z,6.32
2023-02-25T09:55:33.286Z,4.78
2023-02-25T09:58:08.757Z,5.78
2023-02-25T10:00:42.177Z,5.13
2023-02-25T10:06:00.478Z,3.30
2023-02-25T10:08:34.647Z,6.25
2023-02-25T10:11:07.435Z,6.32
2023-02-25T10:13:46.649Z,2.33
2023-02-25T10:16:53.752Z,3.95
2023-02-25T10:22:17.430Z,4.65
2023-02-25T10:24:46.690Z,3.60
2023-02-25T10:27:27.280Z,3.13
2023-02-25T10:30:01.815Z,5.45
2023-02-25T10:32:31.906Z,5.50
2023-02-25T10:35:00.294Z,4.72
2023-02-25T10:37:31.565Z,3.92
2023-02-25T10:39:59.961Z,5.35
2023-02-25T10:42:26.846Z,5.40
2023-02-25T10:44:54.017Z,3.83
2023-02-25T10:47:32.459Z,3.40
2023-02-25T10:50:18.061Z,5.32
2023-02-25T10:53:12.423Z,2.47
2023-02-25T10:58:36.485Z,9.20
2023-02-25T11:01:10.207Z,4.47
2023-02-25T11:03:44.689Z,3.00
2023-02-25T11:08:48.867Z,6.45
2023-02-25T11:13:55.928Z,4.72
2023-02-25T11:16:22.744Z,3.33
2023-02-25T11:18:54.258Z,3.88
2023-02-25T11:21:29.077Z,4.90
2023-02-25T11:23:56.682Z,2.38
2023-02-25T11:26:35.434Z,2.00
2023-02-25T11:29:12.658Z,7.68
2023-02-25T11:31:40.594Z,12.50
2023-02-25T11:34:14.648Z,3.63
2023-02-25T11:36:41.744Z,3.97
2023-02-25T11:39:17.016Z,5.80
2023-02-25T11:41:45.504Z,5.05
2023-02-25T11:47:02.345Z,5.20
2023-02-25T11:55:36.743Z,4.38
2023-02-25T11:58:10.618Z,2.85
2023-02-25T12:00:45.843Z,3.10
2023-02-25T12:03:38.668Z,2.35
2023-02-25T12:09:08.896Z,1.67
2023-02-25T12:11:47.049Z,5.82
2023-02-25T12:14:54.199Z,3.10
2023-02-25T12:17:32.033Z,3.35
2023-02-25T12:20:25.363Z,1.35
2023-02-25T12:23:32.101Z,5.18
2023-02-25T12:26:10.109Z,2.25
2023-02-25T12:34:50.722Z,3.78
2023-02-25T12:40:21.093Z,6.63
2023-02-25T12:43:02.328Z,2.28
2023-02-25T12:46:08.843Z,6.70
2023-02-25T12:49:07.492Z,1.52
2023-02-25T12:51:44.677Z,3.20
2023-02-25T12:54:30.989Z,7.05
2023-02-25T12:57:05.373Z,4.53
2023-02-25T13:05:26.577Z,2.28
2023-02-25T13:08:14.532Z,1.52
2023-02-25T13:11:12.019Z,4.78
2023-02-25T13:14:08.688Z,1.75
2023-02-25T13:16:58.871Z,1.42
2023-02-25T13:19:56.178Z,2.28
2023-02-25T13:22:53.657Z,2.03
2023-02-25T13:25:44.701Z,2.58
2023-02-25T13:28:39.138Z,1.60
2023-02-25T13:34:18.945Z,2.47
2023-02-25T13:37:23.995Z,2.40
2023-02-25T13:40:20.386Z,2.13
2023-02-25T13:42:56.943Z,2.97
2023-02-25T13:45:49.728Z,4.28
2023-02-25T13:48:56.208Z,3.13
2023-02-25T13:54:28.641Z,5.45
2023-02-25T13:57:21.057Z,3.08
2023-02-25T14:00:27.509Z,3.85
2023-02-25T14:03:06.667Z,5.35
2023-02-25T14:05:57.676Z,2.42
2023-02-25T14:09:06.722Z,2.63
2023-02-25T14:11:45.319Z,2.35
2023-02-25T14:14:38.479Z,3.47
2023-02-25T14:17:29.590Z,2.50
2023-02-25T14:20:28.825Z,3.30
2023-02-25T14:22:59.899Z,2.53
2023-02-25T14:25:50.843Z,2.80
2023-02-25T14:28:44.171Z,5.13
2023-02-25T14:31:20.082Z,3.13
2023-02-25T14:34:12.548Z,3.15
2023-02-25T14:37:04.169Z,2.97
2023-02-25T14:40:00.462Z,4.13
2023-02-25T14:42:49.701Z,2.28
2023-02-25T14:45:21.742Z,5.13
2023-02-25T14:47:54.408Z,3.72
2023-02-25T14:50:43.676Z,2.63
2023-02-25T14:53:36.117Z,3.40
2023-02-25T14:56:27.382Z,3.63
2023-02-25T15:02:32.226Z,3.75
2023-02-25T15:05:26.564Z,3.63
2023-02-25T15:08:31.469Z,2.90
2023-02-25T15:11:37.999Z,2.90
2023-02-25T15:14:42.601Z,7.70
2023-02-25T15:17:27.741Z,18.75
2023-02-25T15:20:17.940Z,4.82
2023-02-25T15:25:45.450Z,7.93
2023-02-25T15:31:30.819Z,3.88
2023-02-25T15:34:23.287Z,3.03
2023-02-25T15:36:51.855Z,4.13
2023-02-25T15:39:44.254Z,2.42
2023-02-25T15:42:12.041Z,2.72
2023-02-25T15:44:41.667Z,3.20
2023-02-25T15:47:20.941Z,3.35
2023-02-25T15:49:48.371Z,2.75
2023-02-25T15:55:42.387Z,2.90
2023-02-25T15:58:29.541Z,2.75
2023-02-25T16:03:43.190Z,4.13
2023-02-25T16:06:34.046Z,2.53
2023-02-25T16:09:05.864Z,2.50
2023-02-25T16:11:49.655Z,3.95
2023-02-25T16:14:29.188Z,3.00
2023-02-25T16:16:57.626Z,2.50
2023-02-25T16:19:29.687Z,2.55
2023-02-25T16:21:58.370Z,2.38
2023-02-25T16:24:25.375Z,3.28
2023-02-25T16:27:03.544Z,2.10
2023-02-25T16:29:52.180Z,6.47
2023-02-25T16:35:23.826Z,4.45
2023-02-25T16:37:57.333Z,2.83
2023-02-25T16:40:42.523Z,2.90
2023-02-25T16:43:15.304Z,3.75
2023-02-25T16:45:45.127Z,2.97
2023-02-25T16:48:17.603Z,5.47
2023-02-25T16:50:46.865Z,4.18
2023-02-25T16:53:17.834Z,2.97
2023-02-25T16:55:44.516Z,4.28
2023-02-25T16:58:20.420Z,3.45
2023-02-25T17:00:57.078Z,3.00
2023-02-25T17:03:26.052Z,2.70
2023-02-25T17:06:18.298Z,2.75
2023-02-25T17:08:49.557Z,4.25
2023-02-25T17:11:20.150Z,5.10
2023-02-25T17:13:48.213Z,3.10
2023-02-25T17:16:21.389Z,3.13
2023-02-25T17:18:50.445Z,2.90
2023-02-25T17:21:38.121Z,3.10
2023-02-25T17:24:06.998Z,4.68
2023-02-25T17:26:33.719Z,3.90
2023-02-25T17:29:01.377Z,4.40
2023-02-25T17:31:29.276Z,3.00
2023-02-25T17:34:00.837Z,3.53
2023-02-25T17:36:29.348Z,4.55
2023-02-25T17:38:57.821Z,4.32
2023-02-25T17:41:24.412Z,3.28
2023-02-25T17:43:51.206Z,3.97
2023-02-25T17:46:25.275Z,3.25
2023-02-25T17:48:56.495Z,5.15
2023-02-25T17:51:30.594Z,5.05
2023-02-25T17:54:00.836Z,7.22
2023-02-25T17:56:28.904Z,12.50
2023-02-25T18:01:56.350Z,1.42
2023-02-25T18:04:40.125Z,2.00
2023-02-25T18:07:30.685Z,2.10
2023-02-25T18:09:57.543Z,2.10
2023-02-25T18:12:30.015Z,1.90
2023-02-25T18:14:58.118Z,2.13
2023-02-25T18:17:28.402Z,2.22
2023-02-25T18:19:57.561Z,2.53
2023-02-25T18:22:37.550Z,2.25
2023-02-25T18:25:07.730Z,4.90
2023-02-25T18:27:37.598Z,2.00
2023-02-25T18:30:15.868Z,1.95
2023-02-25T18:32:42.515Z,2.63
2023-02-25T18:35:09.639Z,2.42
2023-02-25T18:37:36.255Z,2.30
2023-02-25T18:40:03.238Z,4.18
2023-02-25T18:42:29.981Z,3.00
2023-02-25T18:44:57.205Z,4.50
2023-02-25T18:47:23.899Z,4.20
2023-02-25T18:49:50.697Z,2.17
2023-02-25T18:52:21.648Z,2.45
2023-02-25T18:54:48.423Z,3.40
2023-02-25T18:57:24.632Z,3.28
2023-02-25T18:59:52.003Z,3.00
2023-02-25T19:02:29.408Z,3.58
2023-02-25T19:04:56.171Z,3.58
2023-02-25T19:07:25.720Z,7.15
2023-02-25T19:09:52.727Z,4.50
2023-02-25T19:12:20.019Z,5.32
2023-02-25T19:14:46.732Z,4.15
2023-02-25T19:17:15.866Z,5.25
2023-02-25T19:19:49.172Z,4.30
2023-02-25T19:22:16.069Z,7.30
2023-02-25T19:24:43.266Z,4.40
2023-02-25T19:27:27.374Z,4.22
2023-02-25T19:29:56.770Z,5.72
2023-02-25T19:32:24.142Z,9.30
2023-02-25T19:34:50.870Z,5.93
2023-02-25T19:37:18.779Z,7.75
2023-02-25T19:39:45.522Z,3.90
2023-02-25T19:42:12.183Z,4.15
2023-02-25T19:44:38.945Z,3.30
2023-02-25T19:47:05.992Z,2.97
2023-02-25T19:49:33.336Z,4.50
2023-02-25T19:51:59.952Z,4.63
2023-02-25T19:54:26.588Z,4.78
2023-02-25T19:56:53.267Z,6.38
2023-02-25T19:59:21.059Z,5.90
2023-02-25T20:01:47.714Z,3.47
2023-02-25T20:04:14.413Z,3.92
2023-02-25T20:06:41.033Z,4.82
2023-02-25T20:09:08.990Z,4.40
2023-02-25T20:11:35.845Z,3.15
2023-02-25T20:14:03.789Z,3.75
2023-02-25T20:16:32.852Z,6.22
2023-02-25T20:18:59.492Z,5.95
2023-02-25T20:21:26.377Z,7.85
2023-02-25T20:23:53.223Z,3.00
2023-02-25T20:26:20.016Z,3.97
2023-02-25T20:28:46.993Z,4.22
2023-02-25T20:31:16.521Z,4.80
2023-02-25T20:33:43.364Z,5.53
2023-02-25T20:36:42.037Z,3.67
2023-02-25T20:39:47.854Z,4.53
2023-02-25T20:42:18.032Z,4.47
2023-02-25T20:44:44.920Z,6.45
2023-02-25T20:47:16.432Z,4.80
2023-02-25T20:49:43.286Z,6.80
2023-02-25T20:52:13.475Z,5.30
2023-02-25T20:54:40.285Z,3.88
2023-02-25T20:57:07.170Z,5.90
2023-02-25T20:59:34.941Z,3.40
2023-02-25T21:02:01.719Z,3.90
2023-02-25T21:04:28.491Z,4.43
2023-02-25T21:06:55.158Z,3.45
2023-02-25T21:09:21.776Z,3.35
2023-02-25T21:11:48.450Z,4.45
2023-02-25T21:14:15.166Z,11.30
2023-02-25T21:16:41.979Z,4.07
2023-02-25T21:19:08.703Z,4.38
2023-02-25T21:21:37.224Z,5.13
2023-02-25T21:24:05.657Z,6.15
2023-02-25T21:26:32.618Z,3.25
2023-02-25T21:28:59.687Z,2.65
2023-02-25T21:31:26.402Z,3.03
2023-02-25T21:33:53.259Z,2.92
2023-02-25T21:36:19.879Z,3.00
2023-02-25T21:38:46.614Z,4.32
2023-02-25T21:41:14.158Z,3.92
2023-02-25T21:43:41.584Z,3.15
2023-02-25T21:46:11.720Z,5.65
2023-02-25T21:48:39.154Z,4.75
2023-02-25T21:51:06.314Z,5.65
2023-02-25T21:53:32.986Z,5.60
2023-02-25T21:56:08.692Z,5.38
2023-02-25T21:58:35.355Z,4.40
2023-02-25T22:01:19.624Z,6.18
2023-02-25T22:03:46.513Z,5.93
2023-02-25T22:06:13.428Z,6.28
2023-02-25T22:08:41.074Z,8.73
2023-02-25T22:11:12.642Z,8.27
2023-02-25T22:13:39.264Z,4.15
2023-02-25T22:16:06.339Z,5.95
2023-02-25T22:18:35.043Z,9.63
2023-02-25T22:21:12.706Z,6.85
2023-02-25T22:23:40.179Z,10.95
2023-02-25T22:26:11.615Z,7.28
2023-02-25T22:28:38.281Z,10.83
2023-02-25T22:31:05.257Z,6.18
2023-02-25T22:33:32.485Z,7.03
2023-02-25T22:36:01.882Z,6.20
2023-02-25T22:38:29.525Z,8.35
2023-02-25T22:40:56.195Z,3.50
2023-02-25T22:43:22.937Z,2.97
2023-02-25T22:45:49.687Z,3.78
2023-02-25T22:48:16.524Z,2.38
2023-02-25T22:50:48.260Z,2.38
2023-02-25T22:53:15.912Z,2.25
2023-02-25T22:55:43.124Z,2.95
2023-02-25T22:58:09.793Z,2.45
2023-02-25T23:00:39.314Z,2.35
2023-02-25T23:03:06.193Z,3.22
2023-02-25T23:05:33.041Z,2.67
2023-02-25T23:08:00.261Z,2.90
2023-02-25T23:10:27.975Z,3.05
2023-02-25T23:12:57.718Z,2.92
2023-02-25T23:15:25.776Z,2.85
2023-02-25T23:17:52.575Z,3.15
2023-02-25T23:20:19.198Z,2.58
2023-02-25T23:22:45.780Z,3.10
2023-02-25T23:25:12.560Z,3.10
2023-02-25T23:27:39.186Z,3.63
2023-02-25T23:30:06.486Z,3.03
2023-02-25T23:32:33.134Z,6.65
2023-02-25T23:34:59.733Z,5.10
2023-02-25T23:37:26.670Z,3.05
2023-02-25T23:39:53.390Z,2.90
2023-02-25T23:42:20.057Z,2.90
2023-02-25T23:44:46.831Z,3.70
2023-02-25T23:47:13.703Z,3.15
2023-02-25T23:49:40.417Z,4.93
2023-02-25T23:52:07.058Z,2.78
2023-02-25T23:54:33.965Z,2.67
2023-02-25T23:57:01.248Z,3.33
2023-02-25T23:59:27.911Z,4.70
